Time;durP1;ratioP1;P1;durP2;ratioP2;P2;SDS_P1;SDS_P2;PMS_P1;PMS_P2;Temp;Humidity;BMP_temperature;BMP_pressure;BME280_temperature;BME280_humidity;BME280_pressure;Samples;Min_cycle;Max_cycle;Signal;HPM_P1;HPM_P2
2023/01/20 00:01:14;;;;;;;12.13;8.80;;;1.70;74.00;;;;;;4953923;28;20521;-52
2023/01/20 00:03:43;;;;;;;16.90;10.30;;;1.70;73.40;;;;;;4950865;28;20501;-52
2023/01/20 00:06:10;;;;;;;12.73;9.60;;;1.70;73.10;;;;;;4953760;28;20971;-52
2023/01/20 00:08:36;;;;;;;12.20;9.77;;;1.70;73.80;;;;;;4955734;28;20516;-52
2023/01/20 00:11:05;;;;;;;16.57;10.40;;;1.70;75.00;;;;;;4953074;28;20521;-52
2023/01/20 00:13:32;;;;;;;15.60;9.30;;;1.70;73.50;;;;;;4953533;28;20474;-52
2023/01/20 00:15:58;;;;;;;15.07;10.13;;;1.70;73.20;;;;;;4952970;28;20506;-52
2023/01/20 00:18:26;;;;;;;13.13;9.37;;;1.70;72.80;;;;;;4953752;29;20490;-52
2023/01/20 00:20:53;;;;;;;13.60;8.90;;;1.70;71.90;;;;;;4952763;29;20579;-52
2023/01/20 00:23:19;;;;;;;13.90;9.40;;;1.70;71.30;;;;;;4952343;29;20502;-52
2023/01/20 00:25:46;;;;;;;14.03;9.20;;;1.70;69.40;;;;;;4952937;28;21156;-51
2023/01/20 00:28:12;;;;;;;13.13;10.17;;;1.70;71.50;;;;;;4953819;28;20507;-52
2023/01/20 00:30:40;;;;;;;15.90;10.73;;;1.70;70.00;;;;;;4953746;28;20529;-51
2023/01/20 00:33:07;;;;;;;24.13;9.77;;;1.70;68.80;;;;;;4949314;29;20467;-51
2023/01/20 00:35:36;;;;;;;16.77;10.90;;;1.70;67.70;;;;;;4950272;28;20537;-52
2023/01/20 00:38:03;;;;;;;31.67;10.97;;;1.70;67.20;;;;;;4951461;28;20493;-51
2023/01/20 00:40:29;;;;;;;14.20;9.93;;;1.70;66.30;;;;;;4952965;28;20520;-51
2023/01/20 00:42:56;;;;;;;15.33;10.00;;;1.70;65.00;;;;;;4952079;28;20504;-52
2023/01/20 00:45:22;;;;;;;16.37;10.23;;;1.70;64.60;;;;;;4948175;28;20498;-51
2023/01/20 00:47:49;;;;;;;18.33;9.03;;;1.70;63.90;;;;;;4952699;28;20512;-51
2023/01/20 00:50:16;;;;;;;15.60;10.30;;;1.60;63.90;;;;;;4952757;28;20489;-53
2023/01/20 00:52:44;;;;;;;16.30;9.67;;;1.60;63.00;;;;;;4952779;28;20492;-51
2023/01/20 00:55:10;;;;;;;14.40;10.70;;;1.60;61.40;;;;;;4951733;29;20541;-52
2023/01/20 00:57:37;;;;;;;22.40;10.47;;;1.70;61.00;;;;;;4951886;29;21095;-52
2023/01/20 01:00:04;;;;;;;14.37;9.70;;;1.70;63.30;;;;;;4955768;28;20864;-52
2023/01/20 01:02:30;;;;;;;21.80;11.13;;;1.70;63.10;;;;;;4952463;29;21008;-52
2023/01/20 01:04:57;;;;;;;18.43;10.83;;;1.60;65.60;;;;;;4952656;29;20502;-53
2023/01/20 01:07:23;;;;;;;14.10;9.70;;;1.60;64.30;;;;;;4949874;28;20556;-53
2023/01/20 01:09:51;;;;;;;14.30;10.50;;;1.60;63.90;;;;;;4951105;28;20500;-53
2023/01/20 01:12:18;;;;;;;18.07;10.37;;;1.60;64.40;;;;;;4953632;28;20490;-52
2023/01/20 01:14:45;;;;;;;19.43;11.63;;;1.60;66.20;;;;;;4953207;28;20856;-52
2023/01/20 01:17:11;;;;;;;17.87;10.93;;;1.50;67.50;;;;;;4946751;28;20493;-54
2023/01/20 01:19:38;;;;;;;23.43;11.87;;;1.50;66.50;;;;;;4954130;28;20472;-53
2023/01/20 01:22:04;;;;;;;15.03;10.73;;;1.60;66.20;;;;;;4951813;28;20584;-52
2023/01/20 01:24:31;;;;;;;19.37;10.50;;;1.50;67.50;;;;;;4952573;28;20500;-54
2023/01/20 01:26:59;;;;;;;13.20;10.30;;;1.50;70.00;;;;;;4950680;28;20501;-52
2023/01/20 01:29:25;;;;;;;13.40;9.43;;;1.40;70.80;;;;;;4952707;28;20501;-52
2023/01/20 01:31:52;;;;;;;15.70;9.30;;;1.40;72.90;;;;;;4952626;28;20520;-52
2023/01/20 01:34:18;;;;;;;16.27;9.57;;;1.40;73.40;;;;;;4952353;29;20470;-53
2023/01/20 01:36:45;;;;;;;20.53;10.20;;;1.40;71.80;;;;;;4950858;28;20906;-53
2023/01/20 01:39:11;;;;;;;15.00;9.57;;;1.30;70.20;;;;;;4951027;28;20511;-52
2023/01/20 01:41:38;;;;;;;18.37;10.27;;;1.30;69.20;;;;;;4943971;29;20581;-52
2023/01/20 01:44:08;;;;;;;15.63;9.67;;;1.30;67.80;;;;;;4952750;28;20509;-53
2023/01/20 01:46:35;;;;;;;11.57;9.80;;;1.20;67.60;;;;;;4949609;28;20463;-52
2023/01/20 01:49:06;;;;;;;16.53;10.27;;;1.30;65.90;;;;;;4951127;28;20516;-53
2023/01/20 01:51:38;;;;;;;11.77;9.77;;;1.20;66.70;;;;;;4951752;28;20569;-51
2023/01/20 01:54:10;;;;;;;18.13;10.13;;;1.20;66.70;;;;;;4948528;28;20490;-52
2023/01/20 01:56:38;;;;;;;16.20;9.13;;;1.20;66.20;;;;;;4947621;28;20584;-52
2023/01/20 01:59:06;;;;;;;15.57;10.10;;;1.30;66.50;;;;;;4953078;28;20492;-52
2023/01/20 02:01:36;;;;;;;12.70;10.27;;;1.30;66.80;;;;;;4952039;28;22024;-52
2023/01/20 02:04:06;;;;;;;18.33;10.03;;;1.20;69.90;;;;;;4950502;28;20504;-52
2023/01/20 02:06:34;;;;;;;12.23;8.57;;;1.20;67.00;;;;;;4949283;29;20845;-52
2023/01/20 02:09:02;;;;;;;19.00;10.50;;;1.20;67.20;;;;;;4950837;28;20509;-52
2023/01/20 02:11:29;;;;;;;12.20;8.83;;;1.30;65.10;;;;;;4950272;28;20576;-53
2023/01/20 02:13:56;;;;;;;14.87;9.20;;;1.30;65.90;;;;;;4951925;28;20509;-53
2023/01/20 02:16:34;;;;;;;13.37;8.90;;;1.30;66.40;;;;;;4951867;28;20497;-52
2023/01/20 02:19:22;;;;;;;15.93;10.27;;;1.30;65.90;;;;;;4946858;28;20474;-52
2023/01/20 02:21:58;;;;;;;14.20;9.00;;;1.30;65.80;;;;;;4943988;28;20632;-52
2023/01/20 02:25:01;;;;;;;18.00;8.27;;;1.30;66.60;;;;;;4951101;29;20558;-52
2023/01/20 02:27:45;;;;;;;14.90;9.10;;;1.30;65.70;;;;;;4938194;28;20477;-52
2023/01/20 02:30:39;;;;;;;15.07;8.93;;;1.30;65.50;;;;;;4947797;28;21192;-52
2023/01/20 02:33:12;;;;;;;16.90;9.67;;;1.30;66.70;;;;;;4946171;29;20509;-55
2023/01/20 02:35:43;;;;;;;15.30;9.17;;;1.30;66.70;;;;;;4948503;28;20561;-55
2023/01/20 02:38:15;;;;;;;18.90;9.97;;;1.30;65.10;;;;;;4950125;28;20498;-52
2023/01/20 02:40:50;;;;;;;14.20;9.90;;;1.30;67.00;;;;;;4951674;28;20984;-51
2023/01/20 02:43:22;;;;;;;16.40;9.40;;;1.30;67.80;;;;;;4951062;29;20580;-52
2023/01/20 02:45:56;;;;;;;18.63;9.10;;;1.30;69.80;;;;;;4951855;28;20552;-53
2023/01/20 02:48:30;;;;;;;13.80;9.37;;;1.30;66.90;;;;;;4955336;28;20557;-53
2023/01/20 02:51:01;;;;;;;12.33;9.97;;;1.20;67.80;;;;;;4951124;28;20575;-52
2023/01/20 02:53:35;;;;;;;15.27;9.67;;;1.20;68.40;;;;;;4949708;28;20829;-52
2023/01/20 02:56:02;;;;;;;28.57;10.00;;;1.20;65.80;;;;;;4948141;28;20494;-52
2023/01/20 02:58:36;;;;;;;12.80;9.17;;;1.30;64.10;;;;;;4951551;29;20529;-53
2023/01/20 03:01:07;;;;;;;14.37;9.93;;;1.30;65.00;;;;;;4951664;28;20568;-52
2023/01/20 03:03:38;;;;;;;13.50;8.97;;;1.30;65.50;;;;;;4948624;28;20496;-52
2023/01/20 03:06:10;;;;;;;16.00;10.07;;;1.30;64.30;;;;;;4953001;28;20505;-53
2023/01/20 03:08:40;;;;;;;16.07;10.33;;;1.30;65.70;;;;;;4952934;28;20459;-52
2023/01/20 03:11:08;;;;;;;17.47;10.40;;;1.30;66.20;;;;;;4954759;28;20694;-51
2023/01/20 03:13:41;;;;;;;17.47;10.60;;;1.30;64.50;;;;;;4953572;28;20509;-52
2023/01/20 03:16:11;;;;;;;16.47;10.00;;;1.30;66.30;;;;;;4952461;28;20508;-53
2023/01/20 03:18:39;;;;;;;17.10;11.43;;;1.20;66.90;;;;;;4955842;28;20552;-52
2023/01/20 03:21:08;;;;;;;23.03;11.37;;;1.20;64.60;;;;;;4955120;28;20576;-52
2023/01/20 03:23:39;;;;;;;28.30;12.30;;;1.20;64.40;;;;;;4955859;28;20488;-52
2023/01/20 03:26:09;;;;;;;20.90;10.53;;;1.30;64.20;;;;;;4952684;28;20508;-52
2023/01/20 03:28:36;;;;;;;24.43;11.20;;;1.30;63.50;;;;;;4956202;28;20538;-52
2023/01/20 03:31:12;;;;;;;17.40;11.47;;;1.30;64.40;;;;;;4954991;28;20521;-53
2023/01/20 03:33:41;;;;;;;18.20;12.40;;;1.30;63.60;;;;;;4955757;28;20978;-53
2023/01/20 03:36:09;;;;;;;21.87;11.90;;;1.30;63.40;;;;;;4953805;28;20545;-53
2023/01/20 03:38:36;;;;;;;27.33;12.00;;;1.30;64.70;;;;;;4952981;28;20539;-54
2023/01/20 03:41:11;;;;;;;21.80;10.50;;;1.30;63.00;;;;;;4954725;28;22180;-53
2023/01/20 03:43:44;;;;;;;18.53;12.10;;;1.30;62.80;;;;;;4954547;28;21050;-52
2023/01/20 03:46:18;;;;;;;17.23;12.13;;;1.30;62.60;;;;;;4954608;28;20503;-52
2023/01/20 03:48:52;;;;;;;13.50;11.73;;;1.20;62.80;;;;;;4949977;28;20505;-52
2023/01/20 03:51:24;;;;;;;24.17;12.83;;;1.20;63.20;;;;;;4950495;28;20576;-53
2023/01/20 03:53:54;;;;;;;18.57;12.77;;;1.10;59.10;;;;;;4945947;28;20556;-52
2023/01/20 03:56:28;;;;;;;21.17;12.47;;;1.10;58.00;;;;;;4951765;28;20577;-52
2023/01/20 03:58:59;;;;;;;15.40;12.63;;;1.10;58.80;;;;;;4954738;29;20488;-52
2023/01/20 04:01:32;;;;;;;26.50;13.20;;;1.10;62.50;;;;;;4954682;28;20524;-52
2023/01/20 04:04:00;;;;;;;21.33;12.00;;;1.10;60.40;;;;;;4955710;28;20451;-53
2023/01/20 04:06:29;;;;;;;24.17;13.13;;;1.00;60.30;;;;;;4949256;28;21005;-53
2023/01/20 04:09:00;;;;;;;21.07;14.03;;;1.10;59.10;;;;;;4945280;28;20905;-52
2023/01/20 04:11:26;;;;;;;27.47;14.00;;;1.10;58.50;;;;;;4954779;28;20567;-52
2023/01/20 04:13:54;;;;;;;19.03;12.77;;;1.00;57.10;;;;;;4953360;28;20473;-54
2023/01/20 04:16:21;;;;;;;20.10;13.03;;;1.00;55.70;;;;;;4945086;29;20556;-52
2023/01/20 04:18:50;;;;;;;20.43;13.97;;;1.10;54.80;;;;;;4940828;28;20580;-53
2023/01/20 04:21:24;;;;;;;19.00;13.93;;;1.00;56.50;;;;;;4945685;28;20581;-52
2023/01/20 04:23:55;;;;;;;26.63;12.40;;;1.00;55.90;;;;;;4946966;28;20593;-52
2023/01/20 04:26:22;;;;;;;27.93;13.90;;;1.00;56.50;;;;;;4945856;28;20557;-52
2023/01/20 04:28:49;;;;;;;21.43;14.07;;;1.00;55.70;;;;;;4953522;28;20464;-52
2023/01/20 04:31:15;;;;;;;20.77;14.20;;;1.00;54.80;;;;;;4952677;28;20576;-52
2023/01/20 04:33:42;;;;;;;17.07;13.33;;;1.00;54.90;;;;;;4954353;28;20486;-53
2023/01/20 04:36:08;;;;;;;26.23;13.77;;;0.80;58.40;;;;;;4953617;28;20469;-53
2023/01/20 04:38:36;;;;;;;24.90;15.27;;;0.90;56.60;;;;;;4953725;28;20509;-55
2023/01/20 04:41:03;;;;;;;21.13;14.53;;;0.80;56.20;;;;;;4954300;28;20508;-53
2023/01/20 04:43:29;;;;;;;16.87;13.87;;;0.80;52.80;;;;;;4950042;28;20579;-52
2023/01/20 04:45:56;;;;;;;16.60;12.77;;;0.80;53.10;;;;;;4953656;28;20469;-52
2023/01/20 04:48:22;;;;;;;24.40;13.73;;;0.80;49.60;;;;;;4952724;28;20466;-52
2023/01/20 04:50:49;;;;;;;21.97;14.30;;;0.80;53.80;;;;;;4953727;28;20569;-52
2023/01/20 04:53:18;;;;;;;23.40;13.93;;;0.70;52.50;;;;;;4951049;28;20540;-52
2023/01/20 04:55:46;;;;;;;21.93;13.27;;;0.70;54.20;;;;;;4952756;29;20541;-52
2023/01/20 04:58:13;;;;;;;14.60;12.47;;;0.70;49.90;;;;;;4951304;28;20465;-52
2023/01/20 05:00:40;;;;;;;16.40;13.07;;;0.70;49.00;;;;;;4959290;28;20488;-52
2023/01/20 05:03:07;;;;;;;18.53;14.30;;;0.60;48.80;;;;;;4959578;28;20544;-52
2023/01/20 05:05:33;;;;;;;19.20;13.80;;;0.70;47.60;;;;;;4951621;28;20560;-52
2023/01/20 05:08:01;;;;;;;20.23;14.17;;;0.70;49.00;;;;;;4950703;28;20480;-52
2023/01/20 05:10:28;;;;;;;20.83;14.40;;;0.70;47.30;;;;;;4954803;28;20490;-51
2023/01/20 05:12:56;;;;;;;22.30;13.77;;;0.70;47.60;;;;;;4950691;28;21023;-52
2023/01/20 05:15:22;;;;;;;18.00;13.90;;;0.80;46.70;;;;;;4949299;28;20570;-51
2023/01/20 05:17:49;;;;;;;16.53;13.00;;;0.80;48.70;;;;;;4951927;28;20493;-52
2023/01/20 05:20:17;;;;;;;23.23;13.30;;;0.70;50.20;;;;;;4953143;28;20561;-51
2023/01/20 05:22:44;;;;;;;23.70;14.50;;;0.60;53.40;;;;;;4950626;28;20491;-54
2023/01/20 05:25:10;;;;;;;19.83;13.90;;;0.60;50.70;;;;;;4943071;28;20594;-51
2023/01/20 05:27:37;;;;;;;21.40;14.30;;;0.60;52.30;;;;;;4953443;28;20500;-51
2023/01/20 05:30:07;;;;;;;17.27;14.13;;;0.50;51.30;;;;;;4951634;28;20566;-51
2023/01/20 05:32:33;;;;;;;20.53;14.00;;;0.50;49.90;;;;;;4948901;28;20557;-51
2023/01/20 05:35:00;;;;;;;18.63;14.77;;;0.50;48.30;;;;;;4953135;28;20454;-51
2023/01/20 05:37:26;;;;;;;18.70;13.40;;;0.50;48.80;;;;;;4949895;28;21023;-51
2023/01/20 05:39:53;;;;;;;19.67;14.17;;;0.40;48.00;;;;;;4953339;28;20556;-50
2023/01/20 05:42:19;;;;;;;16.33;12.73;;;0.40;45.20;;;;;;4949043;28;20581;-50
2023/01/20 05:44:46;;;;;;;19.80;14.53;;;0.40;41.20;;;;;;4953484;28;20486;-50
2023/01/20 05:47:14;;;;;;;23.07;14.17;;;0.50;40.80;;;;;;4946535;28;20549;-51
2023/01/20 05:49:41;;;;;;;20.27;14.40;;;0.50;41.50;;;;;;4953106;29;20461;-50
2023/01/20 05:52:07;;;;;;;17.53;13.40;;;0.50;44.50;;;;;;4949656;28;20592;-51
2023/01/20 05:54:34;;;;;;;19.67;14.47;;;0.40;43.40;;;;;;4951753;28;20520;-51
2023/01/20 05:57:02;;;;;;;17.20;12.97;;;0.40;43.30;;;;;;4946960;28;20656;-51
2023/01/20 05:59:29;;;;;;;22.63;13.27;;;0.40;47.80;;;;;;4950996;29;20464;-52
2023/01/20 06:01:55;;;;;;;28.73;16.00;;;0.30;45.90;;;;;;4947025;29;20521;-51
2023/01/20 06:04:23;;;;;;;18.90;13.53;;;0.30;45.10;;;;;;4953409;29;20586;-51
2023/01/20 06:06:49;;;;;;;19.23;14.23;;;0.30;43.30;;;;;;4950415;28;20584;-51
2023/01/20 06:09:16;;;;;;;21.43;15.23;;;0.30;42.70;;;;;;4946355;28;20552;-50
2023/01/20 06:11:42;;;;;;;18.87;13.37;;;0.30;42.60;;;;;;4952618;28;20929;-50
2023/01/20 06:14:09;;;;;;;20.60;15.30;;;0.30;41.10;;;;;;4952321;28;20504;-50
2023/01/20 06:16:36;;;;;;;21.90;14.33;;;0.30;41.80;;;;;;4946657;28;20559;-50
2023/01/20 06:19:02;;;;;;;31.27;18.10;;;0.30;38.50;;;;;;4948502;28;20995;-51
2023/01/20 06:21:30;;;;;;;27.37;20.90;;;0.30;38.00;;;;;;4950049;28;20585;-50
2023/01/20 06:23:56;;;;;;;20.53;15.47;;;0.30;35.50;;;;;;4947189;28;20485;-50
2023/01/20 06:26:23;;;;;;;25.77;14.10;;;0.30;36.30;;;;;;4950164;28;20561;-51
2023/01/20 06:28:49;;;;;;;21.93;15.10;;;0.30;36.50;;;;;;4948686;28;20493;-50
2023/01/20 06:31:16;;;;;;;20.63;15.17;;;0.30;41.50;;;;;;4949405;28;21067;-51
2023/01/20 06:33:43;;;;;;;21.47;15.63;;;0.30;34.90;;;;;;4946447;28;20588;-50
2023/01/20 06:36:12;;;;;;;29.43;15.33;;;0.40;34.70;;;;;;4946235;28;20915;-49
2023/01/20 06:38:40;;;;;;;22.30;14.70;;;0.40;35.90;;;;;;4950358;29;20872;-51
2023/01/20 06:41:09;;;;;;;22.03;13.73;;;0.40;36.90;;;;;;4951702;28;20820;-50
2023/01/20 06:43:38;;;;;;;21.17;14.87;;;0.40;39.40;;;;;;4954926;28;20537;-50
2023/01/20 06:46:07;;;;;;;22.60;15.70;;;0.40;41.60;;;;;;4955150;28;20477;-50
2023/01/20 06:48:35;;;;;;;18.40;14.50;;;0.40;42.60;;;;;;4952639;28;20560;-51
2023/01/20 06:51:01;;;;;;;20.53;14.50;;;0.30;43.00;;;;;;4949625;28;20544;-51
2023/01/20 06:53:28;;;;;;;23.63;14.13;;;0.30;44.20;;;;;;4952820;28;20552;-50
2023/01/20 06:55:57;;;;;;;23.43;14.83;;;0.30;42.00;;;;;;4953948;28;20567;-50
2023/01/20 06:58:24;;;;;;;22.13;15.90;;;0.30;41.00;;;;;;4955352;28;20879;-51
2023/01/20 07:00:51;;;;;;;22.03;16.83;;;0.30;40.70;;;;;;4954370;28;20513;-51
2023/01/20 07:03:17;;;;;;;27.70;17.47;;;0.30;40.30;;;;;;4951302;28;20576;-52
2023/01/20 07:05:44;;;;;;;27.33;17.37;;;0.30;41.90;;;;;;4951258;29;20528;-52
2023/01/20 07:08:11;;;;;;;30.57;19.70;;;0.30;39.60;;;;;;4952302;28;20508;-53
2023/01/20 07:10:38;;;;;;;29.00;18.73;;;0.20;40.20;;;;;;4951078;28;20867;-52
2023/01/20 07:13:05;;;;;;;27.17;17.07;;;0.20;36.80;;;;;;4951323;28;20556;-52
2023/01/20 07:15:32;;;;;;;24.23;16.03;;;0.20;34.80;;;;;;4953360;28;20564;-52
2023/01/20 07:17:59;;;;;;;23.83;16.00;;;0.20;35.10;;;;;;4955569;29;20465;-52
2023/01/20 07:20:25;;;;;;;20.30;16.30;;;0.20;35.80;;;;;;4949043;28;20569;-52
2023/01/20 07:22:52;;;;;;;24.53;17.80;;;0.30;36.10;;;;;;4948569;28;20588;-52
2023/01/20 07:25:18;;;;;;;27.50;16.60;;;0.30;35.50;;;;;;4955081;28;20551;-51
2023/01/20 07:27:45;;;;;;;23.27;16.40;;;0.20;37.00;;;;;;4954450;28;20493;-50
2023/01/20 07:30:13;;;;;;;28.33;16.10;;;0.20;37.70;;;;;;4955179;28;20477;-52
2023/01/20 07:32:40;;;;;;;21.60;16.27;;;0.20;38.80;;;;;;4954206;29;20644;-52
2023/01/20 07:35:08;;;;;;;26.77;16.50;;;0.10;38.70;;;;;;4958015;28;20556;-52
2023/01/20 07:37:35;;;;;;;22.27;16.07;;;0.20;34.50;;;;;;4944047;28;20927;-51
2023/01/20 07:40:01;;;;;;;22.57;16.40;;;0.30;30.50;;;;;;4960084;28;20473;-52
2023/01/20 07:42:28;;;;;;;29.83;16.90;;;0.40;30.60;;;;;;4959970;28;20573;-51
2023/01/20 07:44:54;;;;;;;23.20;15.10;;;0.30;33.10;;;;;;4952531;28;20493;-51
2023/01/20 07:47:22;;;;;;;27.57;17.00;;;0.40;30.60;;;;;;4954751;28;20482;-52
2023/01/20 07:49:49;;;;;;;21.53;15.60;;;0.50;33.10;;;;;;4949875;28;20561;-53
2023/01/20 07:52:15;;;;;;;19.73;16.13;;;0.40;42.60;;;;;;4952885;28;21045;-52
2023/01/20 07:54:42;;;;;;;25.20;15.43;;;0.30;46.00;;;;;;4952541;28;20557;-53
2023/01/20 07:57:09;;;;;;;20.10;16.20;;;0.20;44.90;;;;;;4953844;28;20564;-52
2023/01/20 07:59:35;;;;;;;22.03;15.73;;;0.10;47.80;;;;;;4953678;29;20911;-53
2023/01/20 08:02:02;;;;;;;20.20;15.43;;;-0.10;45.10;;;;;;4949739;29;20582;-52
2023/01/20 08:04:30;;;;;;;21.83;16.40;;;0.00;40.90;;;;;;4954415;28;20592;-51
2023/01/20 08:06:56;;;;;;;22.13;15.53;;;0.00;41.30;;;;;;4951239;29;20572;-52
2023/01/20 08:09:23;;;;;;;25.43;16.07;;;-0.10;38.40;;;;;;4952826;29;20560;-51
2023/01/20 08:11:49;;;;;;;24.40;17.43;;;-0.10;39.10;;;;;;4955820;28;20473;-52
2023/01/20 08:14:16;;;;;;;24.83;16.10;;;-0.10;37.30;;;;;;4950969;28;20879;-52
2023/01/20 08:16:42;;;;;;;23.60;15.87;;;-0.10;37.60;;;;;;4950823;28;21018;-51
2023/01/20 08:19:09;;;;;;;20.03;15.90;;;-0.10;38.00;;;;;;4950992;28;20505;-50
2023/01/20 08:21:37;;;;;;;19.33;13.37;;;-0.10;37.50;;;;;;4950075;28;20643;-51
2023/01/20 08:24:05;;;;;;;23.83;16.23;;;-0.10;36.90;;;;;;4950984;28;20600;-51
2023/01/20 08:26:33;;;;;;;21.10;15.23;;;-0.10;37.30;;;;;;4950568;28;20536;-51
2023/01/20 08:29:02;;;;;;;19.63;15.23;;;0.00;36.50;;;;;;4950614;28;20527;-57
2023/01/20 08:31:29;;;;;;;20.10;14.50;;;0.00;36.50;;;;;;4950526;29;20486;-58
2023/01/20 08:33:57;;;;;;;22.80;15.57;;;0.00;41.20;;;;;;4951446;29;20553;-57
2023/01/20 08:36:26;;;;;;;22.73;16.33;;;0.10;38.60;;;;;;4945346;29;20556;-59
2023/01/20 08:38:54;;;;;;;22.00;14.23;;;0.10;41.00;;;;;;4951446;29;20493;-57
2023/01/20 08:41:23;;;;;;;19.20;14.00;;;0.00;48.10;;;;;;4953096;28;20489;-59
2023/01/20 08:43:50;;;;;;;19.90;15.20;;;0.00;49.60;;;;;;4952724;29;20569;-58
2023/01/20 08:46:18;;;;;;;21.87;15.70;;;0.10;47.10;;;;;;4949376;28;20462;-57
2023/01/20 08:48:45;;;;;;;20.00;15.50;;;0.00;54.70;;;;;;4952822;29;20495;-58
2023/01/20 08:51:14;;;;;;;18.80;14.93;;;0.10;45.80;;;;;;4937887;28;20589;-57
2023/01/20 08:53:41;;;;;;;28.53;18.23;;;0.20;45.90;;;;;;4949115;28;20931;-58
2023/01/20 08:56:10;;;;;;;24.30;15.77;;;0.10;51.20;;;;;;4941586;28;20552;-57
2023/01/20 08:58:37;;;;;;;25.83;16.20;;;0.20;48.70;;;;;;4949466;28;20546;-57
2023/01/20 09:01:08;;;;;;;24.20;16.57;;;0.20;49.70;;;;;;4948196;28;20540;-58
2023/01/20 09:03:35;;;;;;;27.93;17.37;;;0.20;51.90;;;;;;4949771;28;20488;-58
2023/01/20 09:06:02;;;;;;;22.87;15.50;;;0.20;53.70;;;;;;4948801;28;20511;-58
2023/01/20 09:08:29;;;;;;;25.57;18.83;;;0.20;50.00;;;;;;4949417;28;20956;-58
2023/01/20 09:11:01;;;;;;;30.87;19.67;;;0.30;50.60;;;;;;4951162;28;20926;-58
2023/01/20 09:13:29;;;;;;;27.00;18.33;;;0.40;49.60;;;;;;4952171;28;20516;-58
2023/01/20 09:15:56;;;;;;;27.77;18.40;;;0.30;48.40;;;;;;4951814;28;21011;-59
2023/01/20 09:18:22;;;;;;;28.50;19.47;;;0.40;44.80;;;;;;4944239;28;20497;-58
2023/01/20 09:20:49;;;;;;;28.37;20.80;;;0.40;50.90;;;;;;4949574;28;20875;-57
2023/01/20 09:23:15;;;;;;;33.43;20.07;;;0.40;49.10;;;;;;4947891;28;21026;-58
2023/01/20 09:25:42;;;;;;;30.90;19.00;;;0.50;48.70;;;;;;4949823;28;21024;-58
2023/01/20 09:28:09;;;;;;;27.47;18.97;;;0.50;56.00;;;;;;4948118;28;20561;-57
2023/01/20 09:30:36;;;;;;;31.67;19.77;;;0.50;53.20;;;;;;4948630;28;20577;-57
2023/01/20 09:33:03;;;;;;;32.87;20.17;;;0.50;55.10;;;;;;4947598;28;20562;-57
2023/01/20 09:35:30;;;;;;;26.40;19.23;;;0.50;54.80;;;;;;4947514;29;20501;-58
2023/01/20 09:43:56;;;;;;;38.07;22.20;;;0.70;59.70;;;;;;4949510;28;20540;-57
2023/01/20 09:46:34;;;;;;;29.00;19.37;;;0.70;59.80;;;;;;4951322;28;20480;-57
2023/01/20 09:54:51;;;;;;;26.60;20.10;;;0.70;63.20;;;;;;4955795;28;20536;-58
2023/01/20 09:57:20;;;;;;;32.60;20.43;;;0.70;67.70;;;;;;4952088;28;20493;-58
2023/01/20 09:59:52;;;;;;;32.77;20.90;;;0.70;64.40;;;;;;4949755;28;20469;-58
2023/01/20 10:02:24;;;;;;;31.93;21.90;;;0.80;63.40;;;;;;4950428;28;20492;-58
2023/01/20 10:04:56;;;;;;;28.33;21.73;;;0.80;63.00;;;;;;4876196;28;56451;-57
2023/01/20 10:07:32;;;;;;;37.87;21.80;;;0.80;66.10;;;;;;4921934;29;20553;-58
2023/01/20 10:10:04;;;;;;;31.97;21.83;;;0.80;67.70;;;;;;4935318;29;20506;-58
2023/01/20 10:12:34;;;;;;;38.17;23.90;;;0.80;69.50;;;;;;4935382;29;20493;-59
2023/01/20 10:15:07;;;;;;;34.60;22.03;;;0.80;67.50;;;;;;4944438;28;20548;-58
2023/01/20 10:17:42;;;;;;;31.13;21.10;;;0.90;67.80;;;;;;4930591;29;20570;-58
2023/01/20 10:20:15;;;;;;;30.20;21.30;;;0.80;70.50;;;;;;4926759;29;20533;-52
2023/01/20 10:22:47;;;;;;;36.80;21.07;;;0.90;66.80;;;;;;4930308;29;20463;-51
2023/01/20 10:25:18;;;;;;;27.90;19.60;;;0.90;69.20;;;;;;4929951;29;20590;-52
2023/01/20 10:27:51;;;;;;;27.67;19.70;;;1.00;72.30;;;;;;4933281;29;20473;-52
2023/01/20 10:30:21;;;;;;;35.30;21.10;;;1.00;75.60;;;;;;4930438;29;20554;-52
2023/01/20 10:32:55;;;;;;;36.10;22.07;;;1.00;76.30;;;;;;4931006;29;20517;-52
2023/01/20 10:35:26;;;;;;;34.10;22.63;;;1.00;80.00;;;;;;4926309;29;20504;-53
2023/01/20 10:37:54;;;;;;;37.90;22.67;;;1.00;78.30;;;;;;4923736;29;20565;-52
2023/01/20 10:40:32;;;;;;;36.70;24.33;;;1.00;80.80;;;;;;4927134;29;20475;-52
2023/01/20 10:43:01;;;;;;;44.87;23.47;;;1.10;80.30;;;;;;4931113;29;20554;-52
2023/01/20 10:45:38;;;;;;;36.50;22.93;;;1.10;75.60;;;;;;4930467;29;21078;-53
2023/01/20 10:48:18;;;;;;;35.97;22.63;;;1.20;80.40;;;;;;4935484;29;20511;-53
2023/01/20 10:50:50;;;;;;;31.70;21.50;;;1.20;81.90;;;;;;4927914;29;20509;-52
2023/01/20 10:53:39;;;;;;;35.67;22.60;;;1.10;89.80;;;;;;4930788;29;21012;-53
2023/01/20 10:56:23;;;;;;;34.10;24.07;;;1.20;88.20;;;;;;4920571;29;20810;-52
2023/01/20 10:58:50;;;;;;;30.07;22.27;;;1.20;90.30;;;;;;4925894;29;20524;-53
2023/01/20 11:01:18;;;;;;;33.50;22.83;;;1.00;95.20;;;;;;4927412;29;20540;-53
2023/01/20 11:03:49;;;;;;;31.40;22.93;;;1.10;89.00;;;;;;4930223;29;20467;-54
2023/01/20 11:06:19;;;;;;;33.30;22.77;;;1.10;82.90;;;;;;4929811;29;21223;-52
2023/01/20 11:08:46;;;;;;;30.03;22.23;;;1.20;86.50;;;;;;4927643;29;20503;-52
2023/01/20 11:11:17;;;;;;;36.30;23.33;;;1.20;83.10;;;;;;4929492;29;20569;-53
2023/01/20 11:13:43;;;;;;;34.37;23.50;;;1.30;88.90;;;;;;4926003;29;20560;-52
2023/01/20 11:16:15;;;;;;;31.57;22.47;;;1.30;85.20;;;;;;4928027;29;20952;-52
2023/01/20 11:18:42;;;;;;;31.30;22.60;;;1.40;94.10;;;;;;4926447;29;21041;-53
2023/01/20 11:21:12;;;;;;;34.67;24.13;;;1.40;90.50;;;;;;4926200;29;20977;-53
2023/01/20 11:23:41;;;;;;;33.70;23.40;;;1.40;98.80;;;;;;4928731;29;20549;-53
2023/01/20 11:26:18;;;;;;;36.43;23.57;;;1.50;96.50;;;;;;4930155;29;20527;-52
2023/01/20 11:28:49;;;;;;;32.20;22.63;;;1.40;95.40;;;;;;4929327;29;20473;-53
2023/01/20 11:31:16;;;;;;;32.77;22.57;;;1.40;98.20;;;;;;4933487;29;20569;-53
2023/01/20 11:33:55;;;;;;;31.80;22.50;;;1.50;99.70;;;;;;4933715;29;20956;-53
2023/01/20 11:36:24;;;;;;;31.80;19.80;;;1.50;98.30;;;;;;4932412;29;20883;-52
2023/01/20 11:38:52;;;;;;;35.33;20.33;;;1.60;99.20;;;;;;4934917;29;20489;-53
2023/01/20 11:41:20;;;;;;;31.93;22.47;;;1.40;99.90;;;;;;4934486;29;20924;-52
2023/01/20 11:43:48;;;;;;;36.33;21.47;;;1.50;99.10;;;;;;4935511;29;20464;-52
2023/01/20 11:46:27;;;;;;;25.50;18.93;;;1.50;99.90;;;;;;4934905;29;20509;-53
2023/01/20 11:49:14;;;;;;;31.43;20.47;;;1.40;99.90;;;;;;4931986;29;20471;-53
2023/01/20 11:51:50;;;;;;;29.00;20.90;;;1.50;99.90;;;;;;4929496;29;20549;-52
2023/01/20 11:54:20;;;;;;;28.13;20.27;;;1.60;99.90;;;;;;4935859;29;20463;-52
2023/01/20 11:56:50;;;;;;;28.20;20.13;;;1.60;99.90;;;;;;4936255;29;20470;-52
2023/01/20 11:59:21;;;;;;;28.77;20.00;;;1.60;99.90;;;;;;4933881;29;20497;-52
2023/01/20 12:01:56;;;;;;;34.20;21.80;;;1.70;99.90;;;;;;4933966;29;20522;-52
2023/01/20 12:04:44;;;;;;;38.57;20.90;;;1.70;99.90;;;;;;4936479;29;20551;-52
2023/01/20 12:07:17;;;;;;;33.73;20.40;;;1.80;99.90;;;;;;4932660;29;20505;-52
2023/01/20 12:09:48;;;;;;;31.10;20.50;;;1.70;99.90;;;;;;4927095;29;21028;-52
2023/01/20 12:12:27;;;;;;;26.83;19.60;;;1.80;99.90;;;;;;4927220;29;20585;-53
2023/01/20 12:14:59;;;;;;;25.83;18.60;;;1.90;99.90;;;;;;4930817;29;20481;-52
2023/01/20 12:17:39;;;;;;;38.20;21.87;;;1.90;99.90;;;;;;4930324;29;20554;-52
2023/01/20 12:20:10;;;;;;;24.23;18.93;;;1.70;99.90;;;;;;4933463;29;20534;-53
2023/01/20 12:22:45;;;;;;;29.83;19.37;;;1.80;99.90;;;;;;4935106;29;20908;-53
2023/01/20 12:25:18;;;;;;;36.97;19.40;;;1.80;99.90;;;;;;4933978;29;20485;-52
2023/01/20 12:27:48;;;;;;;29.23;19.10;;;1.80;99.90;;;;;;4932702;29;20589;-52
2023/01/20 12:30:55;;;;;;;31.90;18.50;;;1.80;99.90;;;;;;4930627;29;20501;-52
2023/01/20 12:33:24;;;;;;;24.33;19.03;;;1.90;99.90;;;;;;4929156;29;20560;-52
2023/01/20 12:36:15;;;;;;;25.93;18.00;;;1.80;99.90;;;;;;4933780;29;20550;-51
2023/01/20 12:38:56;;;;;;;31.40;20.20;;;1.80;99.90;;;;;;4926694;29;20553;-53
2023/01/20 12:41:34;;;;;;;34.23;20.20;;;1.70;99.90;;;;;;4929037;29;20526;-51
2023/01/20 12:44:13;;;;;;;31.20;21.03;;;1.60;99.90;;;;;;4933530;29;20811;-52
2023/01/20 12:46:46;;;;;;;26.43;19.77;;;1.70;99.90;;;;;;4931720;29;21058;-52
2023/01/20 12:49:27;;;;;;;23.50;18.57;;;1.70;99.90;;;;;;4935006;29;20528;-53
2023/01/20 12:52:05;;;;;;;32.07;19.07;;;1.90;99.90;;;;;;4931510;29;20553;-53
2023/01/20 12:55:12;;;;;;;29.30;21.00;;;1.90;99.90;;;;;;4935469;29;20544;-52
2023/01/20 12:57:51;;;;;;;22.90;17.77;;;1.90;99.90;;;;;;4934288;29;20486;-53
2023/01/20 13:00:32;;;;;;;31.40;18.90;;;1.90;99.90;;;;;;4934994;29;21012;-52
2023/01/20 13:03:29;;;;;;;27.17;18.00;;;1.90;99.90;;;;;;4931726;29;20692;-53